sensor_id;sensor_type;location;lat;lon;timestamp;P1;durP1;ratioP1;P2;durP2;ratioP2
44564;SDS011;30275;51.822;-0.326;2022-09-01T00:01:33;5.00;;;1.52;;
44564;SDS011;30275;51.822;-0.326;2022-09-01T00:04:05;3.72;;;1.35;;
44564;SDS011;30275;51.822;-0.326;2022-09-01T00:06:34;4.03;;;1.17;;
44564;SDS011;30275;51.822;-0.326;2022-09-01T00:09:05;3.47;;;1.88;;
44564;SDS011;30275;51.822;-0.326;2022-09-01T00:11:32;3.40;;;1.40;;
44564;SDS011;30275;51.822;-0.326;2022-09-01T00:13:59;3.08;;;1.20;;
44564;SDS011;30275;51.822;-0.326;2022-09-01T00:16:27;4.18;;;1.48;;
44564;SDS011;30275;51.822;-0.326;2022-09-01T00:18:55;4.15;;;1.50;;
44564;SDS011;30275;51.822;-0.326;2022-09-01T00:21:24;2.00;;;1.20;;
44564;SDS011;30275;51.822;-0.326;2022-09-01T00:23:58;2.80;;;1.85;;
44564;SDS011;30275;51.822;-0.326;2022-09-01T00:26:25;3.92;;;1.30;;
44564;SDS011;30275;51.822;-0.326;2022-09-01T00:28:50;4.55;;;1.40;;
44564;SDS011;30275;51.822;-0.326;2022-09-01T00:31:16;2.45;;;1.23;;
44564;SDS011;30275;51.822;-0.326;2022-09-01T00:33:44;4.00;;;1.35;;
44564;SDS011;30275;51.822;-0.326;2022-09-01T00:36:14;3.65;;;1.38;;
44564;SDS011;30275;51.822;-0.326;2022-09-01T00:38:40;4.75;;;1.40;;
44564;SDS011;30275;51.822;-0.326;2022-09-01T00:41:06;4.03;;;1.30;;
44564;SDS011;30275;51.822;-0.326;2022-09-01T00:43:43;3.88;;;1.50;;
44564;SDS011;30275;51.822;-0.326;2022-09-01T00:46:18;3.78;;;1.40;;
44564;SDS011;30275;51.822;-0.326;2022-09-01T00:48:46;3.45;;;1.35;;
44564;SDS011;30275;51.822;-0.326;2022-09-01T00:51:15;1.63;;;1.00;;
44564;SDS011;30275;51.822;-0.326;2022-09-01T00:53:41;1.58;;;1.30;;
44564;SDS011;30275;51.822;-0.326;2022-09-01T00:56:09;4.82;;;1.40;;
44564;SDS011;30275;51.822;-0.326;2022-09-01T00:58:35;4.25;;;1.40;;
44564;SDS011;30275;51.822;-0.326;2022-09-01T01:01:02;2.80;;;1.15;;
44564;SDS011;30275;51.822;-0.326;2022-09-01T01:03:29;1.90;;;1.17;;
44564;SDS011;30275;51.822;-0.326;2022-09-01T01:05:56;2.33;;;1.45;;
44564;SDS011;30275;51.822;-0.326;2022-09-01T01:08:24;3.03;;;1.33;;
44564;SDS011;30275;51.822;-0.326;2022-09-01T01:10:58;2.50;;;1.23;;
44564;SDS011;30275;51.822;-0.326;2022-09-01T01:13:26;4.68;;;1.55;;
44564;SDS011;30275;51.822;-0.326;2022-09-01T01:16:00;3.67;;;1.25;;
44564;SDS011;30275;51.822;-0.326;2022-09-01T01:18:27;4.28;;;2.08;;
44564;SDS011;30275;51.822;-0.326;2022-09-01T01:21:01;2.70;;;1.10;;
44564;SDS011;30275;51.822;-0.326;2022-09-01T01:26:42;3.85;;;1.40;;
44564;SDS011;30275;51.822;-0.326;2022-09-01T01:29:08;2.03;;;1.20;;
44564;SDS011;30275;51.822;-0.326;2022-09-01T01:31:34;4.15;;;1.27;;
44564;SDS011;30275;51.822;-0.326;2022-09-01T01:34:01;3.25;;;1.05;;
44564;SDS011;30275;51.822;-0.326;2022-09-01T01:36:31;4.43;;;1.45;;
44564;SDS011;30275;51.822;-0.326;2022-09-01T01:41:36;3.30;;;1.30;;
44564;SDS011;30275;51.822;-0.326;2022-09-01T01:44:06;4.07;;;1.50;;
44564;SDS011;30275;51.822;-0.326;2022-09-01T01:46:32;4.32;;;1.35;;
44564;SDS011;30275;51.822;-0.326;2022-09-01T01:48:59;4.80;;;1.23;;
44564;SDS011;30275;51.822;-0.326;2022-09-01T01:51:28;2.88;;;1.52;;
44564;SDS011;30275;51.822;-0.326;2022-09-01T01:53:57;3.53;;;1.58;;
44564;SDS011;30275;51.822;-0.326;2022-09-01T01:56:29;2.92;;;1.27;;
44564;SDS011;30275;51.822;-0.326;2022-09-01T01:58:57;3.53;;;1.60;;
44564;SDS011;30275;51.822;-0.326;2022-09-01T02:01:23;4.30;;;1.60;;
44564;SDS011;30275;51.822;-0.326;2022-09-01T02:03:52;2.67;;;1.30;;
44564;SDS011;30275;51.822;-0.326;2022-09-01T02:06:22;3.58;;;1.15;;
44564;SDS011;30275;51.822;-0.326;2022-09-01T02:08:50;2.25;;;1.35;;
44564;SDS011;30275;51.822;-0.326;2022-09-01T02:11:17;3.80;;;1.52;;
44564;SDS011;30275;51.822;-0.326;2022-09-01T02:13:43;2.55;;;1.25;;
44564;SDS011;30275;51.822;-0.326;2022-09-01T02:16:10;2.88;;;1.05;;
44564;SDS011;30275;51.822;-0.326;2022-09-01T02:18:47;3.97;;;1.30;;
44564;SDS011;30275;51.822;-0.326;2022-09-01T02:21:15;3.35;;;2.42;;
44564;SDS011;30275;51.822;-0.326;2022-09-01T02:23:54;4.05;;;1.58;;
44564;SDS011;30275;51.822;-0.326;2022-09-01T02:26:26;3.15;;;1.42;;
44564;SDS011;30275;51.822;-0.326;2022-09-01T02:28:57;2.50;;;1.20;;
44564;SDS011;30275;51.822;-0.326;2022-09-01T02:31:27;2.80;;;1.23;;
44564;SDS011;30275;51.822;-0.326;2022-09-01T02:33:53;2.38;;;1.20;;
44564;SDS011;30275;51.822;-0.326;2022-09-01T02:36:19;2.00;;;1.10;;
44564;SDS011;30275;51.822;-0.326;2022-09-01T02:38:44;3.85;;;1.80;;
44564;SDS011;30275;51.822;-0.326;2022-09-01T02:41:13;3.20;;;1.40;;
44564;SDS011;30275;51.822;-0.326;2022-09-01T02:43:41;4.78;;;1.63;;
44564;SDS011;30275;51.822;-0.326;2022-09-01T02:46:10;7.40;;;1.50;;
44564;SDS011;30275;51.822;-0.326;2022-09-01T02:48:38;3.08;;;1.48;;
44564;SDS011;30275;51.822;-0.326;2022-09-01T02:51:10;6.43;;;1.67;;
44564;SDS011;30275;51.822;-0.326;2022-09-01T02:53:38;4.38;;;1.52;;
44564;SDS011;30275;51.822;-0.326;2022-09-01T02:56:06;2.90;;;1.35;;
44564;SDS011;30275;51.822;-0.326;2022-09-01T02:58:38;3.10;;;1.23;;
44564;SDS011;30275;51.822;-0.326;2022-09-01T03:03:37;2.45;;;1.25;;
44564;SDS011;30275;51.822;-0.326;2022-09-01T03:06:03;2.80;;;1.25;;
44564;SDS011;30275;51.822;-0.326;2022-09-01T03:08:33;2.78;;;1.50;;
44564;SDS011;30275;51.822;-0.326;2022-09-01T03:11:02;3.58;;;1.70;;
44564;SDS011;30275;51.822;-0.326;2022-09-01T03:13:29;7.45;;;1.40;;
44564;SDS011;30275;51.822;-0.326;2022-09-01T03:15:55;4.97;;;1.40;;
44564;SDS011;30275;51.822;-0.326;2022-09-01T03:18:21;4.88;;;1.52;;
44564;SDS011;30275;51.822;-0.326;2022-09-01T03:20:46;3.72;;;1.52;;
44564;SDS011;30275;51.822;-0.326;2022-09-01T03:23:15;2.75;;;1.58;;
44564;SDS011;30275;51.822;-0.326;2022-09-01T03:25:43;2.55;;;1.40;;
44564;SDS011;30275;51.822;-0.326;2022-09-01T03:28:10;1.75;;;1.13;;
44564;SDS011;30275;51.822;-0.326;2022-09-01T03:30:37;3.50;;;1.33;;
44564;SDS011;30275;51.822;-0.326;2022-09-01T03:33:05;3.70;;;1.38;;
44564;SDS011;30275;51.822;-0.326;2022-09-01T03:35:33;5.10;;;1.75;;
44564;SDS011;30275;51.822;-0.326;2022-09-01T03:37:59;6.82;;;2.42;;
44564;SDS011;30275;51.822;-0.326;2022-09-01T03:40:26;1.92;;;1.23;;
44564;SDS011;30275;51.822;-0.326;2022-09-01T03:42:56;4.22;;;1.55;;
44564;SDS011;30275;51.822;-0.326;2022-09-01T03:45:23;4.32;;;1.55;;
44564;SDS011;30275;51.822;-0.326;2022-09-01T03:47:50;4.50;;;1.63;;
44564;SDS011;30275;51.822;-0.326;2022-09-01T03:50:18;5.43;;;1.48;;
44564;SDS011;30275;51.822;-0.326;2022-09-01T03:52:50;5.07;;;1.40;;
44564;SDS011;30275;51.822;-0.326;2022-09-01T03:55:18;2.38;;;1.77;;
44564;SDS011;30275;51.822;-0.326;2022-09-01T03:57:54;5.18;;;1.75;;
44564;SDS011;30275;51.822;-0.326;2022-09-01T04:00:25;3.70;;;1.45;;
44564;SDS011;30275;51.822;-0.326;2022-09-01T04:02:55;5.90;;;1.60;;
44564;SDS011;30275;51.822;-0.326;2022-09-01T04:05:24;2.88;;;1.77;;
44564;SDS011;30275;51.822;-0.326;2022-09-01T04:07:56;4.07;;;1.45;;
44564;SDS011;30275;51.822;-0.326;2022-09-01T04:12:50;4.72;;;1.85;;
44564;SDS011;30275;51.822;-0.326;2022-09-01T04:15:16;4.03;;;1.60;;
44564;SDS011;30275;51.822;-0.326;2022-09-01T04:17:45;2.80;;;1.30;;
44564;SDS011;30275;51.822;-0.326;2022-09-01T04:20:33;2.47;;;1.75;;
44564;SDS011;30275;51.822;-0.326;2022-09-01T04:23:12;2.85;;;1.20;;
44564;SDS011;30275;51.822;-0.326;2022-09-01T04:25:50;5.97;;;1.35;;
44564;SDS011;30275;51.822;-0.326;2022-09-01T04:28:19;3.88;;;1.50;;
44564;SDS011;30275;51.822;-0.326;2022-09-01T04:30:53;7.03;;;1.80;;
44564;SDS011;30275;51.822;-0.326;2022-09-01T04:33:24;7.25;;;1.92;;
44564;SDS011;30275;51.822;-0.326;2022-09-01T04:35:52;3.92;;;1.40;;
44564;SDS011;30275;51.822;-0.326;2022-09-01T04:38:24;4.88;;;1.75;;
44564;SDS011;30275;51.822;-0.326;2022-09-01T04:40:50;5.05;;;1.60;;
44564;SDS011;30275;51.822;-0.326;2022-09-01T04:43:16;2.85;;;1.30;;
44564;SDS011;30275;51.822;-0.326;2022-09-01T04:45:42;4.18;;;1.67;;
44564;SDS011;30275;51.822;-0.326;2022-09-01T04:48:10;4.55;;;1.55;;
44564;SDS011;30275;51.822;-0.326;2022-09-01T04:50:38;8.43;;;1.83;;
44564;SDS011;30275;51.822;-0.326;2022-09-01T04:53:05;2.83;;;1.67;;
44564;SDS011;30275;51.822;-0.326;2022-09-01T04:55:31;3.13;;;1.58;;
44564;SDS011;30275;51.822;-0.326;2022-09-01T04:57:58;6.78;;;1.83;;
44564;SDS011;30275;51.822;-0.326;2022-09-01T05:00:26;4.40;;;1.77;;
44564;SDS011;30275;51.822;-0.326;2022-09-01T05:02:57;4.05;;;1.40;;
44564;SDS011;30275;51.822;-0.326;2022-09-01T05:08:06;4.80;;;1.50;;
44564;SDS011;30275;51.822;-0.326;2022-09-01T05:10:44;2.17;;;1.30;;
44564;SDS011;30275;51.822;-0.326;2022-09-01T05:13:14;3.60;;;1.27;;
44564;SDS011;30275;51.822;-0.326;2022-09-01T05:15:42;9.27;;;2.22;;
44564;SDS011;30275;51.822;-0.326;2022-09-01T05:20:40;6.53;;;1.80;;
44564;SDS011;30275;51.822;-0.326;2022-09-01T05:23:10;2.55;;;1.25;;
44564;SDS011;30275;51.822;-0.326;2022-09-01T05:25:40;4.55;;;1.73;;
44564;SDS011;30275;51.822;-0.326;2022-09-01T05:28:08;3.00;;;1.77;;
44564;SDS011;30275;51.822;-0.326;2022-09-01T05:30:36;4.85;;;1.52;;
44564;SDS011;30275;51.822;-0.326;2022-09-01T05:33:06;2.97;;;1.45;;
44564;SDS011;30275;51.822;-0.326;2022-09-01T05:35:41;4.57;;;1.50;;
44564;SDS011;30275;51.822;-0.326;2022-09-01T05:38:16;3.42;;;1.40;;
44564;SDS011;30275;51.822;-0.326;2022-09-01T05:40:42;3.30;;;1.48;;
44564;SDS011;30275;51.822;-0.326;2022-09-01T05:43:09;6.45;;;1.85;;
44564;SDS011;30275;51.822;-0.326;2022-09-01T05:45:36;3.17;;;1.65;;
44564;SDS011;30275;51.822;-0.326;2022-09-01T05:50:40;9.30;;;1.70;;
44564;SDS011;30275;51.822;-0.326;2022-09-01T05:53:09;4.15;;;1.52;;
44564;SDS011;30275;51.822;-0.326;2022-09-01T05:58:14;4.68;;;1.58;;
44564;SDS011;30275;51.822;-0.326;2022-09-01T06:00:44;4.53;;;1.67;;
44564;SDS011;30275;51.822;-0.326;2022-09-01T06:03:13;4.80;;;1.70;;
44564;SDS011;30275;51.822;-0.326;2022-09-01T06:05:42;6.60;;;2.40;;
44564;SDS011;30275;51.822;-0.326;2022-09-01T06:08:12;4.05;;;1.58;;
44564;SDS011;30275;51.822;-0.326;2022-09-01T06:10:39;5.55;;;2.00;;
44564;SDS011;30275;51.822;-0.326;2022-09-01T06:13:08;5.70;;;1.90;;
44564;SDS011;30275;51.822;-0.326;2022-09-01T06:15:36;6.75;;;1.73;;
44564;SDS011;30275;51.822;-0.326;2022-09-01T06:18:06;7.35;;;1.95;;
44564;SDS011;30275;51.822;-0.326;2022-09-01T06:20:37;8.32;;;1.90;;
44564;SDS011;30275;51.822;-0.326;2022-09-01T06:23:05;4.43;;;1.80;;
44564;SDS011;30275;51.822;-0.326;2022-09-01T06:25:31;3.38;;;1.92;;
44564;SDS011;30275;51.822;-0.326;2022-09-01T06:27:57;6.38;;;1.70;;
44564;SDS011;30275;51.822;-0.326;2022-09-01T06:30:24;6.38;;;1.70;;
44564;SDS011;30275;51.822;-0.326;2022-09-01T06:32:53;4.38;;;1.58;;
44564;SDS011;30275;51.822;-0.326;2022-09-01T06:35:22;4.40;;;1.58;;
44564;SDS011;30275;51.822;-0.326;2022-09-01T06:37:53;5.03;;;1.55;;
44564;SDS011;30275;51.822;-0.326;2022-09-01T06:40:22;7.35;;;2.22;;
44564;SDS011;30275;51.822;-0.326;2022-09-01T06:42:50;6.38;;;1.80;;
44564;SDS011;30275;51.822;-0.326;2022-09-01T06:45:21;5.10;;;1.98;;
44564;SDS011;30275;51.822;-0.326;2022-09-01T06:47:48;9.07;;;1.95;;
44564;SDS011;30275;51.822;-0.326;2022-09-01T06:50:16;7.88;;;2.30;;
44564;SDS011;30275;51.822;-0.326;2022-09-01T06:52:46;5.22;;;1.55;;
44564;SDS011;30275;51.822;-0.326;2022-09-01T06:55:14;5.22;;;2.00;;
44564;SDS011;30275;51.822;-0.326;2022-09-01T06:57:41;10.63;;;2.88;;
44564;SDS011;30275;51.822;-0.326;2022-09-01T07:00:15;6.18;;;1.98;;
44564;SDS011;30275;51.822;-0.326;2022-09-01T07:02:45;9.10;;;2.35;;
44564;SDS011;30275;51.822;-0.326;2022-09-01T07:05:12;8.57;;;2.00;;
44564;SDS011;30275;51.822;-0.326;2022-09-01T07:08:01;9.50;;;1.90;;
44564;SDS011;30275;51.822;-0.326;2022-09-01T07:10:31;6.28;;;2.22;;
44564;SDS011;30275;51.822;-0.326;2022-09-01T07:12:57;6.47;;;1.90;;
44564;SDS011;30275;51.822;-0.326;2022-09-01T07:15:24;5.82;;;1.60;;
44564;SDS011;30275;51.822;-0.326;2022-09-01T07:17:52;6.10;;;1.88;;
44564;SDS011;30275;51.822;-0.326;2022-09-01T07:20:21;4.15;;;2.05;;
44564;SDS011;30275;51.822;-0.326;2022-09-01T07:22:49;3.90;;;1.50;;
44564;SDS011;30275;51.822;-0.326;2022-09-01T07:25:16;6.03;;;1.65;;
44564;SDS011;30275;51.822;-0.326;2022-09-01T07:27:42;3.25;;;1.42;;
44564;SDS011;30275;51.822;-0.326;2022-09-01T07:30:18;3.13;;;1.40;;
44564;SDS011;30275;51.822;-0.326;2022-09-01T07:32:46;4.95;;;1.60;;
44564;SDS011;30275;51.822;-0.326;2022-09-01T07:35:15;3.25;;;1.50;;
44564;SDS011;30275;51.822;-0.326;2022-09-01T07:37:46;3.60;;;1.30;;
44564;SDS011;30275;51.822;-0.326;2022-09-01T07:40:13;3.22;;;1.55;;
44564;SDS011;30275;51.822;-0.326;2022-09-01T07:42:43;2.95;;;1.52;;
44564;SDS011;30275;51.822;-0.326;2022-09-01T07:45:12;4.38;;;1.30;;
44564;SDS011;30275;51.822;-0.326;2022-09-01T07:47:42;3.97;;;1.30;;
44564;SDS011;30275;51.822;-0.326;2022-09-01T07:50:09;4.57;;;1.35;;
44564;SDS011;30275;51.822;-0.326;2022-09-01T07:52:39;4.03;;;2.10;;
44564;SDS011;30275;51.822;-0.326;2022-09-01T07:57:36;28.20;;;10.80;;
44564;SDS011;30275;51.822;-0.326;2022-09-01T08:00:05;28.80;;;14.07;;
44564;SDS011;30275;51.822;-0.326;2022-09-01T08:02:31;30.70;;;12.18;;
44564;SDS011;30275;51.822;-0.326;2022-09-01T08:04:57;23.77;;;9.90;;
44564;SDS011;30275;51.822;-0.326;2022-09-01T08:07:24;21.00;;;8.05;;
44564;SDS011;30275;51.822;-0.326;2022-09-01T08:09:50;11.85;;;6.45;;
44564;SDS011;30275;51.822;-0.326;2022-09-01T08:12:16;7.10;;;3.53;;
44564;SDS011;30275;51.822;-0.326;2022-09-01T08:14:42;8.02;;;3.08;;
44564;SDS011;30275;51.822;-0.326;2022-09-01T08:17:07;7.53;;;2.50;;
44564;SDS011;30275;51.822;-0.326;2022-09-01T08:19:33;5.30;;;2.10;;
44564;SDS011;30275;51.822;-0.326;2022-09-01T08:22:00;6.53;;;1.90;;
44564;SDS011;30275;51.822;-0.326;2022-09-01T08:24:26;5.22;;;1.50;;
44564;SDS011;30275;51.822;-0.326;2022-09-01T08:26:51;5.45;;;1.63;;
44564;SDS011;30275;51.822;-0.326;2022-09-01T08:29:17;3.47;;;1.70;;
44564;SDS011;30275;51.822;-0.326;2022-09-01T08:31:44;4.65;;;1.80;;
44564;SDS011;30275;51.822;-0.326;2022-09-01T08:34:11;3.38;;;1.80;;
44564;SDS011;30275;51.822;-0.326;2022-09-01T08:36:37;2.63;;;1.20;;
44564;SDS011;30275;51.822;-0.326;2022-09-01T08:39:03;7.97;;;1.98;;
44564;SDS011;30275;51.822;-0.326;2022-09-01T08:41:38;5.50;;;1.70;;
44564;SDS011;30275;51.822;-0.326;2022-09-01T08:46:57;2.88;;;1.55;;
44564;SDS011;30275;51.822;-0.326;2022-09-01T08:49:31;4.00;;;1.80;;
44564;SDS011;30275;51.822;-0.326;2022-09-01T08:55:33;6.13;;;1.35;;
44564;SDS011;30275;51.822;-0.326;2022-09-01T08:57:43;2.10;;;1.30;;
44564;SDS011;30275;51.822;-0.326;2022-09-01T09:00:11;2.05;;;1.23;;
44564;SDS011;30275;51.822;-0.326;2022-09-01T09:14:31;4.68;;;1.40;;
44564;SDS011;30275;51.822;-0.326;2022-09-01T09:17:07;3.58;;;1.83;;
44564;SDS011;30275;51.822;-0.326;2022-09-01T09:19:35;2.90;;;1.20;;
44564;SDS011;30275;51.822;-0.326;2022-09-01T09:22:04;3.10;;;1.33;;
44564;SDS011;30275;51.822;-0.326;2022-09-01T09:27:17;4.18;;;1.40;;
44564;SDS011;30275;51.822;-0.326;2022-09-01T09:29:47;5.95;;;2.13;;
44564;SDS011;30275;51.822;-0.326;2022-09-01T09:32:17;4.63;;;1.52;;
44564;SDS011;30275;51.822;-0.326;2022-09-01T09:34:44;3.42;;;1.20;;
44564;SDS011;30275;51.822;-0.326;2022-09-01T09:45:31;1.88;;;1.08;;
44564;SDS011;30275;51.822;-0.326;2022-09-01T09:48:08;6.88;;;1.48;;
44564;SDS011;30275;51.822;-0.326;2022-09-01T09:50:55;3.28;;;1.30;;
44564;SDS011;30275;51.822;-0.326;2022-09-01T09:53:41;3.72;;;1.90;;
44564;SDS011;30275;51.822;-0.326;2022-09-01T09:56:27;2.28;;;1.25;;
44564;SDS011;30275;51.822;-0.326;2022-09-01T09:58:53;2.42;;;1.17;;
44564;SDS011;30275;51.822;-0.326;2022-09-01T10:03:51;3.05;;;1.00;;
44564;SDS011;30275;51.822;-0.326;2022-09-01T10:06:32;2.15;;;1.45;;
44564;SDS011;30275;51.822;-0.326;2022-09-01T10:09:07;3.00;;;1.23;;
44564;SDS011;30275;51.822;-0.326;2022-09-01T10:11:39;4.82;;;1.50;;
44564;SDS011;30275;51.822;-0.326;2022-09-01T10:14:21;2.17;;;1.17;;
44564;SDS011;30275;51.822;-0.326;2022-09-01T10:16:51;3.72;;;0.95;;
44564;SDS011;30275;51.822;-0.326;2022-09-01T10:19:22;2.88;;;1.10;;
44564;SDS011;30275;51.822;-0.326;2022-09-01T10:21:50;2.08;;;1.08;;
44564;SDS011;30275;51.822;-0.326;2022-09-01T10:24:29;2.05;;;1.20;;
44564;SDS011;30275;51.822;-0.326;2022-09-01T10:27:00;4.30;;;1.42;;
44564;SDS011;30275;51.822;-0.326;2022-09-01T10:29:30;3.17;;;1.13;;
44564;SDS011;30275;51.822;-0.326;2022-09-01T10:32:02;5.32;;;1.15;;
44564;SDS011;30275;51.822;-0.326;2022-09-01T10:34:34;8.07;;;1.50;;
44564;SDS011;30275;51.822;-0.326;2022-09-01T10:37:02;4.10;;;1.25;;
44564;SDS011;30275;51.822;-0.326;2022-09-01T10:39:29;3.78;;;1.40;;
44564;SDS011;30275;51.822;-0.326;2022-09-01T10:41:56;3.83;;;1.10;;
44564;SDS011;30275;51.822;-0.326;2022-09-01T10:44:37;4.88;;;1.30;;
44564;SDS011;30275;51.822;-0.326;2022-09-01T10:47:34;3.28;;;1.20;;
44564;SDS011;30275;51.822;-0.326;2022-09-01T10:50:21;5.43;;;1.40;;
44564;SDS011;30275;51.822;-0.326;2022-09-01T10:57:55;2.83;;;1.30;;
44564;SDS011;30275;51.822;-0.326;2022-09-01T11:00:43;4.75;;;1.70;;
44564;SDS011;30275;51.822;-0.326;2022-09-01T11:08:22;2.25;;;1.27;;
44564;SDS011;30275;51.822;-0.326;2022-09-01T11:13:52;2.55;;;1.15;;
44564;SDS011;30275;51.822;-0.326;2022-09-01T11:16:30;2.67;;;1.10;;
44564;SDS011;30275;51.822;-0.326;2022-09-01T11:21:45;3.78;;;1.35;;
44564;SDS011;30275;51.822;-0.326;2022-09-01T11:27:02;2.33;;;1.20;;
44564;SDS011;30275;51.822;-0.326;2022-09-01T11:32:31;5.70;;;1.97;;
44564;SDS011;30275;51.822;-0.326;2022-09-01T11:35:01;6.45;;;1.75;;
44564;SDS011;30275;51.822;-0.326;2022-09-01T11:37:29;7.78;;;1.48;;
44564;SDS011;30275;51.822;-0.326;2022-09-01T11:39:57;3.20;;;1.27;;
44564;SDS011;30275;51.822;-0.326;2022-09-01T11:42:30;5.25;;;1.60;;
44564;SDS011;30275;51.822;-0.326;2022-09-01T11:45:15;12.40;;;2.92;;
44564;SDS011;30275;51.822;-0.326;2022-09-01T11:47:47;18.15;;;2.55;;
44564;SDS011;30275;51.822;-0.326;2022-09-01T11:50:24;8.73;;;2.33;;
44564;SDS011;30275;51.822;-0.326;2022-09-01T11:52:58;9.32;;;2.83;;
44564;SDS011;30275;51.822;-0.326;2022-09-01T11:55:30;7.97;;;2.08;;
44564;SDS011;30275;51.822;-0.326;2022-09-01T11:57:58;5.82;;;1.85;;
44564;SDS011;30275;51.822;-0.326;2022-09-01T12:00:25;7.53;;;2.00;;
44564;SDS011;30275;51.822;-0.326;2022-09-01T12:02:54;6.47;;;1.92;;
44564;SDS011;30275;51.822;-0.326;2022-09-01T12:05:28;8.35;;;1.90;;
44564;SDS011;30275;51.822;-0.326;2022-09-01T12:07:56;17.33;;;2.72;;
44564;SDS011;30275;51.822;-0.326;2022-09-01T12:15:38;8.20;;;1.70;;
44564;SDS011;30275;51.822;-0.326;2022-09-01T12:20:37;3.45;;;1.70;;
44564;SDS011;30275;51.822;-0.326;2022-09-01T12:23:03;6.30;;;1.88;;
44564;SDS011;30275;51.822;-0.326;2022-09-01T12:25:46;8.88;;;2.00;;
44564;SDS011;30275;51.822;-0.326;2022-09-01T12:28:12;7.47;;;1.52;;
44564;SDS011;30275;51.822;-0.326;2022-09-01T12:30:39;4.18;;;1.90;;
44564;SDS011;30275;51.822;-0.326;2022-09-01T12:33:09;7.70;;;1.77;;
44564;SDS011;30275;51.822;-0.326;2022-09-01T12:35:36;9.73;;;2.40;;
44564;SDS011;30275;51.822;-0.326;2022-09-01T12:41:00;7.60;;;2.00;;
44564;SDS011;30275;51.822;-0.326;2022-09-01T12:43:27;7.63;;;1.80;;
44564;SDS011;30275;51.822;-0.326;2022-09-01T12:45:55;10.57;;;2.50;;
44564;SDS011;30275;51.822;-0.326;2022-09-01T12:50:55;9.00;;;2.07;;
44564;SDS011;30275;51.822;-0.326;2022-09-01T12:53:27;13.15;;;2.80;;
44564;SDS011;30275;51.822;-0.326;2022-09-01T12:56:00;8.55;;;2.10;;
44564;SDS011;30275;51.822;-0.326;2022-09-01T12:58:40;9.77;;;2.60;;
44564;SDS011;30275;51.822;-0.326;2022-09-01T13:01:22;9.77;;;2.90;;
44564;SDS011;30275;51.822;-0.326;2022-09-01T13:04:10;6.97;;;1.60;;
44564;SDS011;30275;51.822;-0.326;2022-09-01T13:06:38;7.55;;;2.13;;
44564;SDS011;30275;51.822;-0.326;2022-09-01T13:09:03;4.07;;;1.35;;
44564;SDS011;30275;51.822;-0.326;2022-09-01T13:11:29;5.40;;;1.63;;
44564;SDS011;30275;51.822;-0.326;2022-09-01T13:13:55;4.05;;;1.40;;
44564;SDS011;30275;51.822;-0.326;2022-09-01T13:16:21;2.80;;;1.50;;
44564;SDS011;30275;51.822;-0.326;2022-09-01T13:18:47;4.45;;;1.60;;
44564;SDS011;30275;51.822;-0.326;2022-09-01T13:21:13;6.93;;;1.58;;
44564;SDS011;30275;51.822;-0.326;2022-09-01T13:23:39;4.03;;;1.02;;
44564;SDS011;30275;51.822;-0.326;2022-09-01T13:26:05;2.58;;;1.30;;
44564;SDS011;30275;51.822;-0.326;2022-09-01T13:28:31;4.10;;;1.20;;
44564;SDS011;30275;51.822;-0.326;2022-09-01T13:30:59;2.08;;;1.20;;
44564;SDS011;30275;51.822;-0.326;2022-09-01T13:33:29;1.65;;;0.90;;
44564;SDS011;30275;51.822;-0.326;2022-09-01T13:35:56;2.20;;;1.00;;
44564;SDS011;30275;51.822;-0.326;2022-09-01T13:38:22;2.75;;;0.93;;
44564;SDS011;30275;51.822;-0.326;2022-09-01T13:40:48;2.50;;;0.98;;
44564;SDS011;30275;51.822;-0.326;2022-09-01T13:43:16;1.67;;;0.95;;
44564;SDS011;30275;51.822;-0.326;2022-09-01T13:45:44;4.57;;;1.40;;
44564;SDS011;30275;51.822;-0.326;2022-09-01T13:48:11;3.03;;;1.00;;
44564;SDS011;30275;51.822;-0.326;2022-09-01T13:50:37;2.47;;;1.10;;
44564;SDS011;30275;51.822;-0.326;2022-09-01T13:53:03;2.53;;;1.20;;
44564;SDS011;30275;51.822;-0.326;2022-09-01T13:55:30;4.30;;;1.33;;
44564;SDS011;30275;51.822;-0.326;2022-09-01T13:57:57;3.60;;;0.85;;
44564;SDS011;30275;51.822;-0.326;2022-09-01T14:00:24;3.90;;;1.38;;
44564;SDS011;30275;51.822;-0.326;2022-09-01T14:02:53;3.92;;;1.10;;
44564;SDS011;30275;51.822;-0.326;2022-09-01T14:05:25;1.95;;;0.90;;
44564;SDS011;30275;51.822;-0.326;2022-09-01T14:07:53;2.10;;;1.08;;
44564;SDS011;30275;51.822;-0.326;2022-09-01T14:10:19;2.40;;;1.00;;
44564;SDS011;30275;51.822;-0.326;2022-09-01T14:12:46;1.75;;;1.00;;
44564;SDS011;30275;51.822;-0.326;2022-09-01T14:15:13;2.03;;;0.95;;
44564;SDS011;30275;51.822;-0.326;2022-09-01T14:17:40;1.85;;;0.73;;
44564;SDS011;30275;51.822;-0.326;2022-09-01T14:20:07;1.52;;;0.63;;
44564;SDS011;30275;51.822;-0.326;2022-09-01T14:22:36;0.98;;;0.73;;
44564;SDS011;30275;51.822;-0.326;2022-09-01T14:25:04;1.27;;;0.77;;
44564;SDS011;30275;51.822;-0.326;2022-09-01T14:27:30;0.98;;;0.80;;
44564;SDS011;30275;51.822;-0.326;2022-09-01T14:29:56;1.83;;;1.25;;
44564;SDS011;30275;51.822;-0.326;2022-09-01T14:32:22;2.30;;;1.00;;
44564;SDS011;30275;51.822;-0.326;2022-09-01T14:34:50;1.05;;;0.93;;
44564;SDS011;30275;51.822;-0.326;2022-09-01T14:37:17;1.13;;;0.80;;
44564;SDS011;30275;51.822;-0.326;2022-09-01T14:39:47;1.52;;;0.70;;
44564;SDS011;30275;51.822;-0.326;2022-09-01T14:42:14;1.30;;;0.90;;
44564;SDS011;30275;51.822;-0.326;2022-09-01T14:44:40;0.95;;;0.60;;
44564;SDS011;30275;51.822;-0.326;2022-09-01T14:47:07;2.65;;;0.60;;
44564;SDS011;30275;51.822;-0.326;2022-09-01T14:49:33;3.40;;;1.23;;
44564;SDS011;30275;51.822;-0.326;2022-09-01T14:52:01;1.27;;;0.68;;
44564;SDS011;30275;51.822;-0.326;2022-09-01T14:54:29;0.50;;;0.50;;
44564;SDS011;30275;51.822;-0.326;2022-09-01T14:56:55;0.65;;;0.65;;
44564;SDS011;30275;51.822;-0.326;2022-09-01T14:59:21;1.13;;;0.60;;
44564;SDS011;30275;51.822;-0.326;2022-09-01T15:01:46;0.80;;;0.60;;
44564;SDS011;30275;51.822;-0.326;2022-09-01T15:04:12;0.60;;;0.52;;
44564;SDS011;30275;51.822;-0.326;2022-09-01T15:06:38;1.00;;;0.77;;
44564;SDS011;30275;51.822;-0.326;2022-09-01T15:09:04;1.00;;;0.55;;
44564;SDS011;30275;51.822;-0.326;2022-09-01T15:11:30;1.15;;;0.60;;
44564;SDS011;30275;51.822;-0.326;2022-09-01T15:13:56;1.23;;;0.60;;
44564;SDS011;30275;51.822;-0.326;2022-09-01T15:16:22;0.57;;;0.40;;
44564;SDS011;30275;51.822;-0.326;2022-09-01T15:18:50;0.98;;;0.60;;
44564;SDS011;30275;51.822;-0.326;2022-09-01T15:21:26;0.85;;;0.73;;
44564;SDS011;30275;51.822;-0.326;2022-09-01T15:23:55;0.85;;;0.70;;
44564;SDS011;30275;51.822;-0.326;2022-09-01T15:26:20;1.00;;;0.70;;
44564;SDS011;30275;51.822;-0.326;2022-09-01T15:28:46;1.00;;;0.80;;
44564;SDS011;30275;51.822;-0.326;2022-09-01T15:31:15;0.47;;;0.47;;
44564;SDS011;30275;51.822;-0.326;2022-09-01T15:33:43;0.68;;;0.68;;
44564;SDS011;30275;51.822;-0.326;2022-09-01T15:36:12;0.50;;;0.50;;
44564;SDS011;30275;51.822;-0.326;2022-09-01T15:38:42;0.80;;;0.60;;
44564;SDS011;30275;51.822;-0.326;2022-09-01T15:41:08;0.82;;;0.57;;
44564;SDS011;30275;51.822;-0.326;2022-09-01T15:43:34;0.60;;;0.50;;
44564;SDS011;30275;51.822;-0.326;2022-09-01T15:46:02;0.60;;;0.47;;
44564;SDS011;30275;51.822;-0.326;2022-09-01T15:48:28;0.70;;;0.50;;
44564;SDS011;30275;51.822;-0.326;2022-09-01T15:51:01;0.82;;;0.57;;
44564;SDS011;30275;51.822;-0.326;2022-09-01T15:56:12;0.77;;;0.57;;
44564;SDS011;30275;51.822;-0.326;2022-09-01T15:58:38;0.75;;;0.60;;
44564;SDS011;30275;51.822;-0.326;2022-09-01T16:01:03;1.65;;;0.70;;
44564;SDS011;30275;51.822;-0.326;2022-09-01T16:03:29;1.33;;;0.77;;
44564;SDS011;30275;51.822;-0.326;2022-09-01T16:05:58;0.68;;;0.50;;
44564;SDS011;30275;51.822;-0.326;2022-09-01T16:08:25;1.52;;;0.70;;
44564;SDS011;30275;51.822;-0.326;2022-09-01T16:10:50;1.40;;;0.65;;
44564;SDS011;30275;51.822;-0.326;2022-09-01T16:13:16;0.82;;;0.50;;
44564;SDS011;30275;51.822;-0.326;2022-09-01T16:15:49;3.30;;;0.60;;
44564;SDS011;30275;51.822;-0.326;2022-09-01T16:18:37;0.88;;;0.68;;